Terminal Aerodrome Forecast
Issued by NWS

Current Version | Previous Version | Graphics & Text | Print | Product List | Glossary On
Versions: 1 2 3 4 5 6 7 8 9 10 11 12 13 14
726
FTUS41 KPBZ 250520
TAFMGW
TAF
KMGW 250520Z 2506/2606 08008KT P6SM VCSH OVC070
     FM251600 09012G18KT P6SM SCT070
     FM252100 09012G18KT P6SM BKN025
     FM260100 09006KT P6SM BKN015=

USA.gov is the U.S. government's official web portal to all federal, state and local government web resources and services.